Aérodrome :
LOGIN :

S'inscrire | Disclaimer

   EN    FR    IT 

 










Légende :    VFR   VFR Marginal   IFR   IFR Intensif   IFR Très Intensif
Visi : 
Plafond : 
>= 8 km
>= 3000ft
5 à 8 km
1000 à 3000 ft
1500m à 5 km
500 à 1000 ft
800 à 1500m
200 à 500 ft
< 800m
< 200 ft
Symboles :   Orages  Brouillard  Fortes neiges  Fortes précipitations  Vent > 20 kt
SIGMETs :   Divers  Orages  Givrage  Turbulence  Onde Orograph.  Cendres Volcan.






- Altitude de l'aérodrome : 527 ft
- Code IATA : DBV


LDDU - Dubrovnik

DERNIER METAR :
  • 211100Z 26008KT 230V290 9999 FEW040 29/21 Q1010 NOSIG

METARs EXPIRÉS :
  • 211030Z 27009KT 230V310 9999 FEW040 28/21 Q1010 NOSIG
  • 211000Z 28007KT 230V320 9999 FEW040 29/20 Q1010 NOSIG
  • 210930Z 31007KT 260V020 9999 FEW040 29/19 Q1010 NOSIG
  • 210900Z 29008KT 260V330 9999 FEW040 29/21 Q1010 NOSIG
  • 210830Z 29008KT CAVOK 28/21 Q1009 NOSIG
  • 210800Z 30009KT CAVOK 28/21 Q1009 NOSIG
  • 210730Z 29009KT CAVOK 28/22 Q1009 NOSIG
  • 210700Z 29008KT 250V320 CAVOK 27/20 Q1009 NOSIG
  • 210630Z 30007KT CAVOK 28/20 Q1009 NOSIG

TAF TAF LDDU
Valide du 21 à 06h jusqu'au 22 à 06h UTC


210525Z 2106/2206 32005KT CAVOK TX30/2111Z TN23/2203Z
BECMG 2107/2109 29010KT
BECMG 2118/2120 04005KT



MET'MAP, la Météo Aéronautique d'un coup d'oeil ! - Copyright ORBIFLY Décembre 2007 - Disclaimer

ORBIFLY MET'MAP TEAM :

Programmation & Développement : Alexandra Zaïnal
Sur une idée originale de : Baudouin d'Aumeries
Soutien technique & logistique : Manuel Goepfert
Assistance : Marc-Olivier Méhu




SOURCES & CREDITS :

   NOAA